sensor_id;sensor_type;location;lat;lon;timestamp;P1;durP1;ratioP1;P2;durP2;ratioP2
27187;SDS011;14708;50.872;5.306;2022-07-01T00:00:16;1.63;;;0.75;;
27187;SDS011;14708;50.872;5.306;2022-07-01T00:02:42;1.25;;;0.90;;
27187;SDS011;14708;50.872;5.306;2022-07-01T00:05:07;0.93;;;0.65;;
27187;SDS011;14708;50.872;5.306;2022-07-01T00:07:33;0.75;;;0.63;;
27187;SDS011;14708;50.872;5.306;2022-07-01T00:10:02;1.30;;;0.80;;
27187;SDS011;14708;50.872;5.306;2022-07-01T00:12:29;1.20;;;0.85;;
27187;SDS011;14708;50.872;5.306;2022-07-01T00:14:54;0.75;;;0.60;;
27187;SDS011;14708;50.872;5.306;2022-07-01T00:17:20;0.95;;;0.70;;
27187;SDS011;14708;50.872;5.306;2022-07-01T00:19:46;0.68;;;0.68;;
27187;SDS011;14708;50.872;5.306;2022-07-01T00:22:13;1.30;;;0.77;;
27187;SDS011;14708;50.872;5.306;2022-07-01T00:24:39;2.15;;;0.70;;
27187;SDS011;14708;50.872;5.306;2022-07-01T00:27:04;1.45;;;0.95;;
27187;SDS011;14708;50.872;5.306;2022-07-01T00:29:30;0.70;;;0.70;;
27187;SDS011;14708;50.872;5.306;2022-07-01T00:31:58;2.30;;;0.60;;
27187;SDS011;14708;50.872;5.306;2022-07-01T00:34:24;0.90;;;0.80;;
27187;SDS011;14708;50.872;5.306;2022-07-01T00:36:49;1.92;;;0.90;;
27187;SDS011;14708;50.872;5.306;2022-07-01T00:39:15;0.80;;;0.77;;
27187;SDS011;14708;50.872;5.306;2022-07-01T00:41:41;1.50;;;0.77;;
27187;SDS011;14708;50.872;5.306;2022-07-01T00:44:15;1.33;;;0.70;;
27187;SDS011;14708;50.872;5.306;2022-07-01T00:46:43;0.70;;;0.70;;
27187;SDS011;14708;50.872;5.306;2022-07-01T00:49:16;0.73;;;0.60;;
27187;SDS011;14708;50.872;5.306;2022-07-01T00:51:52;0.70;;;0.70;;
27187;SDS011;14708;50.872;5.306;2022-07-01T00:54:18;0.60;;;0.60;;
27187;SDS011;14708;50.872;5.306;2022-07-01T00:56:45;0.90;;;0.68;;
27187;SDS011;14708;50.872;5.306;2022-07-01T00:59:12;0.85;;;0.75;;
27187;SDS011;14708;50.872;5.306;2022-07-01T01:01:38;1.17;;;0.70;;
27187;SDS011;14708;50.872;5.306;2022-07-01T01:04:04;0.88;;;0.82;;
27187;SDS011;14708;50.872;5.306;2022-07-01T01:06:30;1.00;;;0.90;;
27187;SDS011;14708;50.872;5.306;2022-07-01T01:08:55;1.08;;;0.70;;
27187;SDS011;14708;50.872;5.306;2022-07-01T01:11:23;0.88;;;0.82;;
27187;SDS011;14708;50.872;5.306;2022-07-01T01:13:51;0.57;;;0.57;;
27187;SDS011;14708;50.872;5.306;2022-07-01T01:16:20;0.68;;;0.63;;
27187;SDS011;14708;50.872;5.306;2022-07-01T01:18:46;0.98;;;0.82;;
27187;SDS011;14708;50.872;5.306;2022-07-01T01:21:12;1.58;;;0.80;;
27187;SDS011;14708;50.872;5.306;2022-07-01T01:23:45;0.73;;;0.70;;
27187;SDS011;14708;50.872;5.306;2022-07-01T01:26:14;0.80;;;0.80;;
27187;SDS011;14708;50.872;5.306;2022-07-01T01:28:41;0.85;;;0.75;;
27187;SDS011;14708;50.872;5.306;2022-07-01T01:31:07;0.60;;;0.60;;
27187;SDS011;14708;50.872;5.306;2022-07-01T01:33:32;1.13;;;0.93;;
27187;SDS011;14708;50.872;5.306;2022-07-01T01:35:58;0.80;;;0.65;;
27187;SDS011;14708;50.872;5.306;2022-07-01T01:38:23;1.30;;;0.98;;
27187;SDS011;14708;50.872;5.306;2022-07-01T01:40:49;1.45;;;0.70;;
27187;SDS011;14708;50.872;5.306;2022-07-01T01:43:15;0.60;;;0.60;;
27187;SDS011;14708;50.872;5.306;2022-07-01T01:45:41;1.05;;;0.70;;
27187;SDS011;14708;50.872;5.306;2022-07-01T01:48:06;2.00;;;1.08;;
27187;SDS011;14708;50.872;5.306;2022-07-01T01:50:32;0.90;;;0.85;;
27187;SDS011;14708;50.872;5.306;2022-07-01T01:52:58;0.90;;;0.70;;
27187;SDS011;14708;50.872;5.306;2022-07-01T01:55:23;0.80;;;0.80;;
27187;SDS011;14708;50.872;5.306;2022-07-01T01:57:51;0.82;;;0.63;;
27187;SDS011;14708;50.872;5.306;2022-07-01T02:00:17;0.52;;;0.52;;
27187;SDS011;14708;50.872;5.306;2022-07-01T02:02:43;0.95;;;0.75;;
27187;SDS011;14708;50.872;5.306;2022-07-01T02:05:26;1.60;;;0.77;;
27187;SDS011;14708;50.872;5.306;2022-07-01T02:07:52;1.35;;;0.68;;
27187;SDS011;14708;50.872;5.306;2022-07-01T02:10:17;0.90;;;0.70;;
27187;SDS011;14708;50.872;5.306;2022-07-01T02:12:43;0.98;;;0.90;;
27187;SDS011;14708;50.872;5.306;2022-07-01T02:15:09;0.60;;;0.60;;
27187;SDS011;14708;50.872;5.306;2022-07-01T02:17:34;0.70;;;0.70;;
27187;SDS011;14708;50.872;5.306;2022-07-01T02:20:00;0.70;;;0.70;;
27187;SDS011;14708;50.872;5.306;2022-07-01T02:22:26;1.35;;;0.82;;
27187;SDS011;14708;50.872;5.306;2022-07-01T02:24:51;1.25;;;0.70;;
27187;SDS011;14708;50.872;5.306;2022-07-01T02:27:17;0.90;;;0.63;;
27187;SDS011;14708;50.872;5.306;2022-07-01T02:29:43;2.65;;;1.10;;
27187;SDS011;14708;50.872;5.306;2022-07-01T02:32:09;1.00;;;0.77;;
27187;SDS011;14708;50.872;5.306;2022-07-01T02:34:35;0.98;;;0.88;;
27187;SDS011;14708;50.872;5.306;2022-07-01T02:37:00;1.27;;;0.90;;
27187;SDS011;14708;50.872;5.306;2022-07-01T02:39:26;0.80;;;0.70;;
27187;SDS011;14708;50.872;5.306;2022-07-01T02:41:52;1.33;;;0.50;;
27187;SDS011;14708;50.872;5.306;2022-07-01T02:44:36;0.98;;;0.82;;
27187;SDS011;14708;50.872;5.306;2022-07-01T02:47:02;0.70;;;0.70;;
27187;SDS011;14708;50.872;5.306;2022-07-01T02:49:28;0.85;;;0.80;;
27187;SDS011;14708;50.872;5.306;2022-07-01T02:51:53;0.70;;;0.70;;
27187;SDS011;14708;50.872;5.306;2022-07-01T02:54:19;1.45;;;0.80;;
27187;SDS011;14708;50.872;5.306;2022-07-01T02:56:44;1.35;;;0.70;;
27187;SDS011;14708;50.872;5.306;2022-07-01T02:59:10;1.10;;;0.70;;
27187;SDS011;14708;50.872;5.306;2022-07-01T03:01:36;0.60;;;0.60;;
27187;SDS011;14708;50.872;5.306;2022-07-01T03:04:02;0.90;;;0.70;;
27187;SDS011;14708;50.872;5.306;2022-07-01T03:06:27;0.90;;;0.68;;
27187;SDS011;14708;50.872;5.306;2022-07-01T03:08:53;0.75;;;0.75;;
27187;SDS011;14708;50.872;5.306;2022-07-01T03:11:18;0.82;;;0.80;;
27187;SDS011;14708;50.872;5.306;2022-07-01T03:13:44;0.77;;;0.77;;
27187;SDS011;14708;50.872;5.306;2022-07-01T03:16:10;0.90;;;0.60;;
27187;SDS011;14708;50.872;5.306;2022-07-01T03:18:35;0.80;;;0.77;;
27187;SDS011;14708;50.872;5.306;2022-07-01T03:21:01;0.70;;;0.70;;
27187;SDS011;14708;50.872;5.306;2022-07-01T03:23:27;0.85;;;0.70;;
27187;SDS011;14708;50.872;5.306;2022-07-01T03:25:52;1.10;;;0.90;;
27187;SDS011;14708;50.872;5.306;2022-07-01T03:28:33;1.05;;;0.82;;
27187;SDS011;14708;50.872;5.306;2022-07-01T03:30:59;1.05;;;0.60;;
27187;SDS011;14708;50.872;5.306;2022-07-01T03:33:26;0.70;;;0.70;;
27187;SDS011;14708;50.872;5.306;2022-07-01T03:35:52;1.95;;;0.82;;
27187;SDS011;14708;50.872;5.306;2022-07-01T03:38:18;0.60;;;0.60;;
27187;SDS011;14708;50.872;5.306;2022-07-01T03:40:43;0.60;;;0.60;;
27187;SDS011;14708;50.872;5.306;2022-07-01T03:43:09;1.00;;;0.82;;
27187;SDS011;14708;50.872;5.306;2022-07-01T03:45:35;0.80;;;0.80;;
27187;SDS011;14708;50.872;5.306;2022-07-01T03:48:01;1.20;;;0.90;;
27187;SDS011;14708;50.872;5.306;2022-07-01T03:50:30;0.73;;;0.60;;
27187;SDS011;14708;50.872;5.306;2022-07-01T03:52:55;0.60;;;0.60;;
27187;SDS011;14708;50.872;5.306;2022-07-01T03:55:39;0.70;;;0.70;;
27187;SDS011;14708;50.872;5.306;2022-07-01T03:58:10;1.00;;;0.90;;
27187;SDS011;14708;50.872;5.306;2022-07-01T04:00:36;0.95;;;0.73;;
27187;SDS011;14708;50.872;5.306;2022-07-01T04:03:03;0.57;;;0.57;;
27187;SDS011;14708;50.872;5.306;2022-07-01T04:05:31;0.80;;;0.63;;
27187;SDS011;14708;50.872;5.306;2022-07-01T04:08:02;0.93;;;0.80;;
27187;SDS011;14708;50.872;5.306;2022-07-01T04:10:30;0.93;;;0.52;;
27187;SDS011;14708;50.872;5.306;2022-07-01T04:12:58;0.60;;;0.60;;
27187;SDS011;14708;50.872;5.306;2022-07-01T04:15:25;0.60;;;0.60;;
27187;SDS011;14708;50.872;5.306;2022-07-01T04:17:51;0.63;;;0.60;;
27187;SDS011;14708;50.872;5.306;2022-07-01T04:20:16;0.70;;;0.70;;
27187;SDS011;14708;50.872;5.306;2022-07-01T04:22:42;1.20;;;0.80;;
27187;SDS011;14708;50.872;5.306;2022-07-01T04:25:08;2.58;;;0.80;;
27187;SDS011;14708;50.872;5.306;2022-07-01T04:27:33;0.98;;;0.70;;
27187;SDS011;14708;50.872;5.306;2022-07-01T04:30:00;0.80;;;0.80;;
27187;SDS011;14708;50.872;5.306;2022-07-01T04:32:43;0.80;;;0.73;;
27187;SDS011;14708;50.872;5.306;2022-07-01T04:35:08;0.77;;;0.68;;
27187;SDS011;14708;50.872;5.306;2022-07-01T04:37:37;1.02;;;0.70;;
27187;SDS011;14708;50.872;5.306;2022-07-01T04:40:02;1.23;;;0.80;;
27187;SDS011;14708;50.872;5.306;2022-07-01T04:42:28;0.70;;;0.68;;
27187;SDS011;14708;50.872;5.306;2022-07-01T04:44:54;0.80;;;0.80;;
27187;SDS011;14708;50.872;5.306;2022-07-01T04:47:20;0.70;;;0.70;;
27187;SDS011;14708;50.872;5.306;2022-07-01T04:49:47;0.60;;;0.60;;
27187;SDS011;14708;50.872;5.306;2022-07-01T04:52:12;0.68;;;0.63;;
27187;SDS011;14708;50.872;5.306;2022-07-01T04:54:38;0.98;;;0.77;;
27187;SDS011;14708;50.872;5.306;2022-07-01T04:57:04;0.90;;;0.80;;
27187;SDS011;14708;50.872;5.306;2022-07-01T04:59:29;1.00;;;0.60;;
27187;SDS011;14708;50.872;5.306;2022-07-01T05:01:55;0.70;;;0.70;;
27187;SDS011;14708;50.872;5.306;2022-07-01T05:04:21;1.55;;;0.65;;
27187;SDS011;14708;50.872;5.306;2022-07-01T05:06:47;0.50;;;0.50;;
27187;SDS011;14708;50.872;5.306;2022-07-01T05:09:12;0.80;;;0.70;;
27187;SDS011;14708;50.872;5.306;2022-07-01T05:11:38;0.60;;;0.60;;
27187;SDS011;14708;50.872;5.306;2022-07-01T05:14:14;0.80;;;0.70;;
27187;SDS011;14708;50.872;5.306;2022-07-01T05:16:40;0.55;;;0.55;;
27187;SDS011;14708;50.872;5.306;2022-07-01T05:19:05;1.15;;;1.00;;
27187;SDS011;14708;50.872;5.306;2022-07-01T05:21:50;3.13;;;0.70;;
27187;SDS011;14708;50.872;5.306;2022-07-01T05:24:21;0.80;;;0.70;;
27187;SDS011;14708;50.872;5.306;2022-07-01T05:26:47;0.77;;;0.70;;
27187;SDS011;14708;50.872;5.306;2022-07-01T05:29:13;1.52;;;0.80;;
27187;SDS011;14708;50.872;5.306;2022-07-01T05:31:39;1.73;;;0.75;;
27187;SDS011;14708;50.872;5.306;2022-07-01T05:34:05;1.63;;;0.90;;
27187;SDS011;14708;50.872;5.306;2022-07-01T05:36:31;1.35;;;0.80;;
27187;SDS011;14708;50.872;5.306;2022-07-01T05:39:05;2.05;;;0.93;;
27187;SDS011;14708;50.872;5.306;2022-07-01T05:41:30;4.13;;;0.88;;
27187;SDS011;14708;50.872;5.306;2022-07-01T05:43:57;4.93;;;1.38;;
27187;SDS011;14708;50.872;5.306;2022-07-01T05:46:23;1.67;;;0.90;;
27187;SDS011;14708;50.872;5.306;2022-07-01T05:48:48;3.15;;;1.10;;
27187;SDS011;14708;50.872;5.306;2022-07-01T05:51:14;1.08;;;0.70;;
27187;SDS011;14708;50.872;5.306;2022-07-01T05:53:40;1.42;;;0.80;;
27187;SDS011;14708;50.872;5.306;2022-07-01T05:56:06;2.63;;;1.10;;
27187;SDS011;14708;50.872;5.306;2022-07-01T05:58:31;2.28;;;1.10;;
27187;SDS011;14708;50.872;5.306;2022-07-01T06:00:57;3.90;;;1.10;;
27187;SDS011;14708;50.872;5.306;2022-07-01T06:03:23;5.15;;;1.30;;
27187;SDS011;14708;50.872;5.306;2022-07-01T06:05:49;3.97;;;1.35;;
27187;SDS011;14708;50.872;5.306;2022-07-01T06:08:14;2.85;;;1.52;;
27187;SDS011;14708;50.872;5.306;2022-07-01T06:10:40;1.80;;;0.93;;
27187;SDS011;14708;50.872;5.306;2022-07-01T06:13:06;5.55;;;1.35;;
27187;SDS011;14708;50.872;5.306;2022-07-01T06:15:32;7.65;;;2.40;;
27187;SDS011;14708;50.872;5.306;2022-07-01T06:17:58;8.32;;;2.80;;
27187;SDS011;14708;50.872;5.306;2022-07-01T06:20:24;8.75;;;2.80;;
27187;SDS011;14708;50.872;5.306;2022-07-01T06:22:49;5.72;;;2.50;;
27187;SDS011;14708;50.872;5.306;2022-07-01T06:25:15;9.68;;;2.75;;
27187;SDS011;14708;50.872;5.306;2022-07-01T06:27:41;10.05;;;3.00;;
27187;SDS011;14708;50.872;5.306;2022-07-01T06:30:16;8.68;;;2.97;;
27187;SDS011;14708;50.872;5.306;2022-07-01T06:32:41;10.63;;;3.10;;
27187;SDS011;14708;50.872;5.306;2022-07-01T06:35:07;10.40;;;3.10;;
27187;SDS011;14708;50.872;5.306;2022-07-01T06:37:33;5.95;;;2.65;;
27187;SDS011;14708;50.872;5.306;2022-07-01T06:40:01;4.07;;;2.05;;
27187;SDS011;14708;50.872;5.306;2022-07-01T06:42:31;7.32;;;2.60;;
27187;SDS011;14708;50.872;5.306;2022-07-01T06:44:58;9.50;;;2.75;;
27187;SDS011;14708;50.872;5.306;2022-07-01T06:47:23;13.52;;;2.67;;
27187;SDS011;14708;50.872;5.306;2022-07-01T06:49:49;9.52;;;2.75;;
27187;SDS011;14708;50.872;5.306;2022-07-01T06:52:14;7.03;;;2.40;;
27187;SDS011;14708;50.872;5.306;2022-07-01T06:54:40;9.90;;;2.25;;
27187;SDS011;14708;50.872;5.306;2022-07-01T06:57:06;7.72;;;2.10;;
27187;SDS011;14708;50.872;5.306;2022-07-01T06:59:32;5.47;;;2.30;;
27187;SDS011;14708;50.872;5.306;2022-07-01T07:01:57;6.07;;;1.92;;
27187;SDS011;14708;50.872;5.306;2022-07-01T07:04:23;11.55;;;2.38;;
27187;SDS011;14708;50.872;5.306;2022-07-01T07:06:49;11.27;;;2.42;;
27187;SDS011;14708;50.872;5.306;2022-07-01T07:09:25;11.98;;;2.67;;
27187;SDS011;14708;50.872;5.306;2022-07-01T07:11:51;8.18;;;2.33;;
27187;SDS011;14708;50.872;5.306;2022-07-01T07:14:17;10.15;;;2.08;;
27187;SDS011;14708;50.872;5.306;2022-07-01T07:16:42;4.07;;;1.95;;
27187;SDS011;14708;50.872;5.306;2022-07-01T07:19:08;8.80;;;1.80;;
27187;SDS011;14708;50.872;5.306;2022-07-01T07:21:35;11.25;;;2.75;;
27187;SDS011;14708;50.872;5.306;2022-07-01T07:24:00;9.15;;;2.33;;
27187;SDS011;14708;50.872;5.306;2022-07-01T07:26:26;11.68;;;2.22;;
27187;SDS011;14708;50.872;5.306;2022-07-01T07:28:51;105.30;;;15.43;;
27187;SDS011;14708;50.872;5.306;2022-07-01T07:31:17;125.03;;;22.67;;
27187;SDS011;14708;50.872;5.306;2022-07-01T07:33:43;45.92;;;9.85;;
27187;SDS011;14708;50.872;5.306;2022-07-01T07:36:08;51.42;;;8.85;;
27187;SDS011;14708;50.872;5.306;2022-07-01T07:38:36;31.33;;;6.93;;
27187;SDS011;14708;50.872;5.306;2022-07-01T07:41:02;45.40;;;9.07;;
27187;SDS011;14708;50.872;5.306;2022-07-01T07:43:29;34.80;;;8.45;;
27187;SDS011;14708;50.872;5.306;2022-07-01T07:45:55;41.70;;;8.25;;
27187;SDS011;14708;50.872;5.306;2022-07-01T07:48:20;25.00;;;5.90;;
27187;SDS011;14708;50.872;5.306;2022-07-01T07:50:53;11.65;;;3.13;;
27187;SDS011;14708;50.872;5.306;2022-07-01T07:53:19;21.85;;;4.32;;
27187;SDS011;14708;50.872;5.306;2022-07-01T07:55:45;15.13;;;3.40;;
27187;SDS011;14708;50.872;5.306;2022-07-01T07:58:10;14.30;;;2.95;;
27187;SDS011;14708;50.872;5.306;2022-07-01T08:00:36;13.90;;;2.47;;
27187;SDS011;14708;50.872;5.306;2022-07-01T08:03:02;7.63;;;2.22;;
27187;SDS011;14708;50.872;5.306;2022-07-01T08:05:28;8.48;;;2.47;;
27187;SDS011;14708;50.872;5.306;2022-07-01T08:07:53;10.63;;;2.03;;
27187;SDS011;14708;50.872;5.306;2022-07-01T08:10:19;12.32;;;2.55;;
27187;SDS011;14708;50.872;5.306;2022-07-01T08:12:45;6.93;;;1.85;;
27187;SDS011;14708;50.872;5.306;2022-07-01T08:15:10;8.45;;;2.00;;
27187;SDS011;14708;50.872;5.306;2022-07-01T08:17:36;7.38;;;1.80;;
27187;SDS011;14708;50.872;5.306;2022-07-01T08:20:02;5.78;;;1.40;;
27187;SDS011;14708;50.872;5.306;2022-07-01T08:22:28;5.63;;;1.80;;
27187;SDS011;14708;50.872;5.306;2022-07-01T08:24:54;7.65;;;1.50;;
27187;SDS011;14708;50.872;5.306;2022-07-01T08:27:19;5.82;;;1.90;;
27187;SDS011;14708;50.872;5.306;2022-07-01T08:29:45;7.05;;;1.75;;
27187;SDS011;14708;50.872;5.306;2022-07-01T08:32:11;4.07;;;1.42;;
27187;SDS011;14708;50.872;5.306;2022-07-01T08:34:44;4.10;;;1.38;;
27187;SDS011;14708;50.872;5.306;2022-07-01T08:37:10;4.80;;;1.85;;
27187;SDS011;14708;50.872;5.306;2022-07-01T08:39:35;7.05;;;1.85;;
27187;SDS011;14708;50.872;5.306;2022-07-01T08:42:01;4.95;;;1.33;;
27187;SDS011;14708;50.872;5.306;2022-07-01T08:44:28;6.63;;;1.40;;
27187;SDS011;14708;50.872;5.306;2022-07-01T08:46:53;6.57;;;1.38;;
27187;SDS011;14708;50.872;5.306;2022-07-01T08:49:19;6.80;;;1.25;;
27187;SDS011;14708;50.872;5.306;2022-07-01T08:51:46;6.30;;;1.30;;
27187;SDS011;14708;50.872;5.306;2022-07-01T08:54:12;5.22;;;1.80;;
27187;SDS011;14708;50.872;5.306;2022-07-01T08:56:37;5.97;;;1.85;;
27187;SDS011;14708;50.872;5.306;2022-07-01T08:59:06;5.88;;;1.67;;
27187;SDS011;14708;50.872;5.306;2022-07-01T09:01:32;5.32;;;1.70;;
27187;SDS011;14708;50.872;5.306;2022-07-01T09:04:32;5.68;;;1.17;;
27187;SDS011;14708;50.872;5.306;2022-07-01T09:06:51;5.22;;;1.50;;
27187;SDS011;14708;50.872;5.306;2022-07-01T09:09:22;5.80;;;1.48;;
27187;SDS011;14708;50.872;5.306;2022-07-01T09:14:24;4.00;;;1.35;;
27187;SDS011;14708;50.872;5.306;2022-07-01T09:16:58;5.93;;;1.65;;
27187;SDS011;14708;50.872;5.306;2022-07-01T09:19:26;1.92;;;1.02;;
27187;SDS011;14708;50.872;5.306;2022-07-01T09:21:56;3.45;;;1.23;;
27187;SDS011;14708;50.872;5.306;2022-07-01T09:27:13;5.55;;;1.30;;
27187;SDS011;14708;50.872;5.306;2022-07-01T09:32:09;4.28;;;1.20;;
27187;SDS011;14708;50.872;5.306;2022-07-01T09:34:41;3.13;;;1.52;;
27187;SDS011;14708;50.872;5.306;2022-07-01T09:37:10;3.08;;;0.93;;
27187;SDS011;14708;50.872;5.306;2022-07-01T09:39:47;7.03;;;1.40;;
27187;SDS011;14708;50.872;5.306;2022-07-01T09:42:23;5.03;;;1.30;;
27187;SDS011;14708;50.872;5.306;2022-07-01T09:45:04;5.37;;;1.43;;
27187;SDS011;14708;50.872;5.306;2022-07-01T09:47:33;4.50;;;1.30;;
27187;SDS011;14708;50.872;5.306;2022-07-01T09:50:00;7.90;;;1.67;;
27187;SDS011;14708;50.872;5.306;2022-07-01T09:52:26;2.67;;;1.10;;
27187;SDS011;14708;50.872;5.306;2022-07-01T09:54:53;4.47;;;1.52;;
27187;SDS011;14708;50.872;5.306;2022-07-01T09:57:19;7.85;;;1.55;;
27187;SDS011;14708;50.872;5.306;2022-07-01T09:59:47;5.35;;;1.23;;
27187;SDS011;14708;50.872;5.306;2022-07-01T10:02:14;5.03;;;1.17;;
27187;SDS011;14708;50.872;5.306;2022-07-01T10:04:49;3.65;;;1.15;;
27187;SDS011;14708;50.872;5.306;2022-07-01T10:12:55;3.65;;;1.30;;
27187;SDS011;14708;50.872;5.306;2022-07-01T10:15:23;3.60;;;1.10;;
27187;SDS011;14708;50.872;5.306;2022-07-01T10:17:52;3.50;;;1.17;;
27187;SDS011;14708;50.872;5.306;2022-07-01T10:20:19;5.18;;;1.25;;
27187;SDS011;14708;50.872;5.306;2022-07-01T10:22:49;5.35;;;1.30;;
27187;SDS011;14708;50.872;5.306;2022-07-01T10:31:18;3.20;;;1.20;;
27187;SDS011;14708;50.872;5.306;2022-07-01T10:44:22;6.50;;;1.40;;
27187;SDS011;14708;50.872;5.306;2022-07-01T10:46:50;15.17;;;2.20;;
27187;SDS011;14708;50.872;5.306;2022-07-01T10:52:00;20.63;;;2.60;;
27187;SDS011;14708;50.872;5.306;2022-07-01T10:59:44;12.75;;;2.38;;
27187;SDS011;14708;50.872;5.306;2022-07-01T11:05:04;17.90;;;2.92;;
27187;SDS011;14708;50.872;5.306;2022-07-01T11:07:54;22.10;;;3.38;;
27187;SDS011;14708;50.872;5.306;2022-07-01T11:10:20;26.58;;;4.15;;
27187;SDS011;14708;50.872;5.306;2022-07-01T11:12:46;25.67;;;3.80;;
27187;SDS011;14708;50.872;5.306;2022-07-01T11:15:14;35.42;;;4.75;;
27187;SDS011;14708;50.872;5.306;2022-07-01T11:17:41;32.85;;;4.80;;
27187;SDS011;14708;50.872;5.306;2022-07-01T11:20:09;24.95;;;4.38;;
27187;SDS011;14708;50.872;5.306;2022-07-01T11:22:35;24.98;;;4.18;;
27187;SDS011;14708;50.872;5.306;2022-07-01T11:25:07;38.78;;;5.28;;
27187;SDS011;14708;50.872;5.306;2022-07-01T11:27:37;35.50;;;4.75;;
27187;SDS011;14708;50.872;5.306;2022-07-01T11:32:38;30.33;;;4.30;;
27187;SDS011;14708;50.872;5.306;2022-07-01T11:35:08;26.25;;;3.95;;
27187;SDS011;14708;50.872;5.306;2022-07-01T11:38:06;23.63;;;3.55;;
27187;SDS011;14708;50.872;5.306;2022-07-01T11:40:53;26.63;;;4.55;;
27187;SDS011;14708;50.872;5.306;2022-07-01T11:43:21;29.13;;;3.83;;
27187;SDS011;14708;50.872;5.306;2022-07-01T11:45:52;26.90;;;4.53;;
27187;SDS011;14708;50.872;5.306;2022-07-01T11:48:35;29.25;;;4.25;;
27187;SDS011;14708;50.872;5.306;2022-07-01T11:51:07;25.17;;;3.75;;
27187;SDS011;14708;50.872;5.306;2022-07-01T11:53:40;25.13;;;5.10;;
27187;SDS011;14708;50.872;5.306;2022-07-01T11:56:08;26.05;;;4.47;;
27187;SDS011;14708;50.872;5.306;2022-07-01T11:58:55;20.88;;;5.00;;
27187;SDS011;14708;50.872;5.306;2022-07-01T12:01:22;23.42;;;4.97;;
27187;SDS011;14708;50.872;5.306;2022-07-01T12:03:56;20.67;;;3.35;;
27187;SDS011;14708;50.872;5.306;2022-07-01T12:06:24;25.73;;;4.72;;
27187;SDS011;14708;50.872;5.306;2022-07-01T12:08:50;24.48;;;4.00;;
27187;SDS011;14708;50.872;5.306;2022-07-01T12:11:16;14.25;;;3.30;;
27187;SDS011;14708;50.872;5.306;2022-07-01T12:13:46;18.50;;;3.92;;
27187;SDS011;14708;50.872;5.306;2022-07-01T12:16:12;14.63;;;2.83;;
27187;SDS011;14708;50.872;5.306;2022-07-01T12:18:38;15.10;;;2.78;;
27187;SDS011;14708;50.872;5.306;2022-07-01T12:21:15;19.08;;;3.75;;
27187;SDS011;14708;50.872;5.306;2022-07-01T12:23:40;20.00;;;3.10;;
27187;SDS011;14708;50.872;5.306;2022-07-01T12:26:07;15.20;;;3.35;;
27187;SDS011;14708;50.872;5.306;2022-07-01T12:28:41;20.83;;;3.30;;
27187;SDS011;14708;50.872;5.306;2022-07-01T12:31:09;16.58;;;3.72;;
27187;SDS011;14708;50.872;5.306;2022-07-01T12:33:36;15.63;;;2.80;;
27187;SDS011;14708;50.872;5.306;2022-07-01T12:36:03;13.98;;;3.58;;
27187;SDS011;14708;50.872;5.306;2022-07-01T12:38:30;16.88;;;3.22;;
27187;SDS011;14708;50.872;5.306;2022-07-01T12:40:57;11.48;;;2.75;;
27187;SDS011;14708;50.872;5.306;2022-07-01T12:43:27;17.60;;;3.83;;
27187;SDS011;14708;50.872;5.306;2022-07-01T12:45:55;13.57;;;3.05;;
27187;SDS011;14708;50.872;5.306;2022-07-01T12:48:22;12.65;;;3.08;;
27187;SDS011;14708;50.872;5.306;2022-07-01T12:50:48;15.60;;;3.15;;
27187;SDS011;14708;50.872;5.306;2022-07-01T12:53:20;14.63;;;3.37;;
27187;SDS011;14708;50.872;5.306;2022-07-01T12:55:47;11.88;;;2.78;;
27187;SDS011;14708;50.872;5.306;2022-07-01T12:58:22;10.50;;;3.30;;
27187;SDS011;14708;50.872;5.306;2022-07-01T13:00:53;16.85;;;3.42;;
27187;SDS011;14708;50.872;5.306;2022-07-01T13:03:20;13.63;;;2.70;;
27187;SDS011;14708;50.872;5.306;2022-07-01T13:05:48;11.15;;;2.67;;
27187;SDS011;14708;50.872;5.306;2022-07-01T13:08:14;10.00;;;2.67;;
27187;SDS011;14708;50.872;5.306;2022-07-01T13:10:40;15.32;;;2.15;;
27187;SDS011;14708;50.872;5.306;2022-07-01T13:13:06;15.90;;;2.60;;
27187;SDS011;14708;50.872;5.306;2022-07-01T13:15:31;11.10;;;2.70;;
27187;SDS011;14708;50.872;5.306;2022-07-01T13:17:57;12.75;;;3.58;;
27187;SDS011;14708;50.872;5.306;2022-07-01T13:20:23;12.85;;;3.00;;
27187;SDS011;14708;50.872;5.306;2022-07-01T13:22:49;9.65;;;3.05;;
27187;SDS011;14708;50.872;5.306;2022-07-01T13:25:18;8.95;;;2.70;;
27187;SDS011;14708;50.872;5.306;2022-07-01T13:27:45;14.07;;;2.22;;
27187;SDS011;14708;50.872;5.306;2022-07-01T13:30:11;7.95;;;2.03;;
27187;SDS011;14708;50.872;5.306;2022-07-01T13:37:43;13.75;;;2.25;;
27187;SDS011;14708;50.872;5.306;2022-07-01T13:40:09;8.63;;;1.83;;
27187;SDS011;14708;50.872;5.306;2022-07-01T13:42:35;8.40;;;2.03;;
27187;SDS011;14708;50.872;5.306;2022-07-01T13:45:02;11.50;;;2.47;;
27187;SDS011;14708;50.872;5.306;2022-07-01T13:47:28;8.13;;;2.03;;
27187;SDS011;14708;50.872;5.306;2022-07-01T13:49:55;7.93;;;2.17;;
27187;SDS011;14708;50.872;5.306;2022-07-01T13:52:20;8.80;;;1.70;;
27187;SDS011;14708;50.872;5.306;2022-07-01T13:54:57;14.55;;;2.28;;
27187;SDS011;14708;50.872;5.306;2022-07-01T13:57:24;8.60;;;1.92;;
27187;SDS011;14708;50.872;5.306;2022-07-01T13:59:50;6.70;;;1.95;;
27187;SDS011;14708;50.872;5.306;2022-07-01T14:02:17;7.53;;;1.67;;
27187;SDS011;14708;50.872;5.306;2022-07-01T14:04:44;4.55;;;1.40;;
27187;SDS011;14708;50.872;5.306;2022-07-01T14:07:10;6.70;;;1.92;;
27187;SDS011;14708;50.872;5.306;2022-07-01T14:09:36;2.72;;;1.20;;
27187;SDS011;14708;50.872;5.306;2022-07-01T14:12:06;9.85;;;1.70;;
27187;SDS011;14708;50.872;5.306;2022-07-01T14:17:00;12.02;;;1.67;;
27187;SDS011;14708;50.872;5.306;2022-07-01T14:19:26;5.10;;;1.60;;
27187;SDS011;14708;50.872;5.306;2022-07-01T14:21:53;11.02;;;1.98;;
27187;SDS011;14708;50.872;5.306;2022-07-01T14:24:20;8.98;;;1.65;;
27187;SDS011;14708;50.872;5.306;2022-07-01T14:26:54;10.70;;;1.55;;
27187;SDS011;14708;50.872;5.306;2022-07-01T14:29:20;3.35;;;1.10;;
27187;SDS011;14708;50.872;5.306;2022-07-01T14:31:46;8.93;;;1.50;;
27187;SDS011;14708;50.872;5.306;2022-07-01T14:34:11;6.30;;;1.17;;
27187;SDS011;14708;50.872;5.306;2022-07-01T14:36:37;8.13;;;1.33;;
27187;SDS011;14708;50.872;5.306;2022-07-01T14:39:03;4.82;;;1.23;;
27187;SDS011;14708;50.872;5.306;2022-07-01T14:41:29;4.93;;;1.13;;
27187;SDS011;14708;50.872;5.306;2022-07-01T14:43:55;7.65;;;1.10;;
27187;SDS011;14708;50.872;5.306;2022-07-01T14:46:20;6.30;;;1.00;;
27187;SDS011;14708;50.872;5.306;2022-07-01T14:48:46;9.13;;;1.30;;
27187;SDS011;14708;50.872;5.306;2022-07-01T14:51:12;8.45;;;1.15;;
27187;SDS011;14708;50.872;5.306;2022-07-01T14:53:37;14.60;;;1.50;;
27187;SDS011;14708;50.872;5.306;2022-07-01T14:56:03;6.97;;;1.10;;
27187;SDS011;14708;50.872;5.306;2022-07-01T14:58:29;7.95;;;1.10;;
27187;SDS011;14708;50.872;5.306;2022-07-01T15:00:55;5.68;;;0.95;;
27187;SDS011;14708;50.872;5.306;2022-07-01T15:03:20;8.05;;;0.93;;
27187;SDS011;14708;50.872;5.306;2022-07-01T15:05:46;6.32;;;1.23;;
27187;SDS011;14708;50.872;5.306;2022-07-01T15:08:12;7.75;;;0.98;;
27187;SDS011;14708;50.872;5.306;2022-07-01T15:10:45;5.53;;;1.10;;
27187;SDS011;14708;50.872;5.306;2022-07-01T15:13:11;11.50;;;1.23;;
27187;SDS011;14708;50.872;5.306;2022-07-01T15:15:39;8.88;;;1.27;;
27187;SDS011;14708;50.872;5.306;2022-07-01T15:18:05;5.63;;;1.17;;
27187;SDS011;14708;50.872;5.306;2022-07-01T15:20:31;4.25;;;1.00;;
27187;SDS011;14708;50.872;5.306;2022-07-01T15:22:56;8.50;;;1.00;;
27187;SDS011;14708;50.872;5.306;2022-07-01T15:25:22;8.48;;;1.05;;
27187;SDS011;14708;50.872;5.306;2022-07-01T15:27:48;7.07;;;0.80;;
27187;SDS011;14708;50.872;5.306;2022-07-01T15:30:14;5.80;;;1.10;;
27187;SDS011;14708;50.872;5.306;2022-07-01T15:32:42;2.60;;;0.93;;
27187;SDS011;14708;50.872;5.306;2022-07-01T15:35:08;2.38;;;0.80;;